RJDA(METAR)
05/21 20:00
METAR RJDA 211100Z 23003KT 190V270 9999 FEW040 19/16 Q1007 RMK
1CU040 A2975=
戻る
トップページへ戻る
IMOC Co,.Ltd.